Time;durP1;ratioP1;P1;durP2;ratioP2;P2;SDS_P1;SDS_P2;PMS_P1;PMS_P2;Temp;Humidity;BMP_temperature;BMP_pressure;BME280_temperature;BME280_humidity;BME280_pressure;Samples;Min_cycle;Max_cycle;Signal;HPM_P1;HPM_P2
2023/04/22 00:01:59;;;;;;;;;30.00;26.67;;;;;9.69;100.00;100198.34;4985710;28;45466;-72
2023/04/22 00:04:24;;;;;;;;;31.67;28.00;;;;;9.69;100.00;100198.34;4974952;28;45290;-73
2023/04/22 00:06:50;;;;;;;;;28.33;26.00;;;;;9.62;100.00;100192.06;4957364;28;46020;-73
2023/04/22 00:09:15;;;;;;;;;26.00;25.67;;;;;9.62;100.00;100189.31;4972778;28;45725;-74
2023/04/22 00:11:41;;;;;;;;;23.33;21.00;;;;;9.59;100.00;100199.88;4954669;28;48559;-73
2023/04/22 00:14:07;;;;;;;;;25.00;23.00;;;;;9.44;100.00;100178.25;4978026;28;45761;-73
2023/04/22 00:16:32;;;;;;;;;22.67;21.00;;;;;9.53;100.00;100201.56;4987758;28;45914;-73
2023/04/22 00:18:57;;;;;;;;;25.00;25.00;;;;;9.50;100.00;100199.28;4976831;28;47159;-71
2023/04/22 00:21:23;;;;;;;;;29.33;27.33;;;;;9.47;100.00;100194.22;4970681;28;46007;-72
2023/04/22 00:23:48;;;;;;;;;23.67;22.33;;;;;9.49;100.00;100209.38;4988647;28;45663;-72
2023/04/22 00:26:14;;;;;;;;;31.67;28.33;;;;;9.48;100.00;100204.13;4971845;28;45470;-74
2023/04/22 00:28:39;;;;;;;;;23.67;21.33;;;;;9.49;100.00;100211.25;4977250;28;45387;-72
2023/04/22 00:31:06;;;;;;;;;26.00;23.00;;;;;9.47;100.00;100196.97;4987932;28;46280;-74
2023/04/22 00:33:32;;;;;;;;;32.00;27.00;;;;;9.45;100.00;100190.88;4974715;28;45891;-74
2023/04/22 00:35:57;;;;;;;;;31.33;28.00;;;;;9.44;100.00;100197.41;4972096;28;46022;-74
2023/04/22 00:38:23;;;;;;;;;34.33;30.00;;;;;9.41;100.00;100195.09;4971269;28;45523;-73
2023/04/22 00:40:48;;;;;;;;;29.00;23.67;;;;;9.40;100.00;100199.72;4971951;28;45854;-73
2023/04/22 00:43:15;;;;;;;;;29.00;26.00;;;;;9.35;100.00;100203.09;4971579;28;45708;-73
2023/04/22 00:45:42;;;;;;;;;29.33;26.33;;;;;9.33;100.00;100202.47;4961631;28;45820;-72
2023/04/22 00:48:08;;;;;;;;;25.67;24.00;;;;;9.32;100.00;100206.25;4957005;28;46189;-71
2023/04/22 00:50:33;;;;;;;;;22.67;20.67;;;;;9.26;100.00;100198.06;4973459;28;46519;-72
2023/04/22 00:52:58;;;;;;;;;29.67;26.00;;;;;9.27;100.00;100200.59;4975818;28;45502;-73
2023/04/22 00:55:24;;;;;;;;;34.67;29.00;;;;;9.24;100.00;100191.97;4978462;28;45838;-71
2023/04/22 00:57:51;;;;;;;;;29.33;28.33;;;;;9.23;100.00;100191.13;4958994;28;45822;-72
2023/04/22 01:00:18;;;;;;;;;36.67;28.00;;;;;9.18;100.00;100188.19;4976237;28;46337;-72
2023/04/22 01:02:44;;;;;;;;;31.00;28.33;;;;;9.16;100.00;100179.34;4979851;28;45428;-72
2023/04/22 01:05:10;;;;;;;;;30.67;25.00;;;;;9.15;100.00;100178.53;4977783;28;45465;-76
2023/04/22 01:07:36;;;;;;;;;24.00;22.33;;;;;9.11;100.00;100176.44;4964945;28;46088;-71
2023/04/22 01:10:03;;;;;;;;;29.33;26.00;;;;;9.01;100.00;100152.22;4983824;28;45861;-73
2023/04/22 01:12:28;;;;;;;;;28.33;27.33;;;;;9.10;100.00;100166.53;4992377;28;45445;-73
2023/04/22 01:14:54;;;;;;;;;25.00;24.33;;;;;9.07;100.00;100164.22;4984915;28;45542;-72
2023/04/22 01:17:20;;;;;;;;;21.00;20.33;;;;;9.08;100.00;100165.91;4963934;28;46007;-72
2023/04/22 01:19:47;;;;;;;;;27.00;24.67;;;;;9.07;100.00;100150.53;4976883;28;45650;-71
2023/04/22 01:22:14;;;;;;;;;28.67;27.00;;;;;9.06;100.00;100148.88;4996619;28;45781;-75
2023/04/22 01:24:40;;;;;;;;;25.33;25.00;;;;;9.05;100.00;100148.03;4984435;28;45838;-72
2023/04/22 01:27:05;;;;;;;;;28.00;26.33;;;;;9.09;100.00;100143.00;4980360;28;45400;-72
2023/04/22 01:29:31;;;;;;;;;34.33;29.00;;;;;9.14;100.00;100132.22;4981248;28;46345;-73
2023/04/22 01:31:57;;;;;;;;;32.67;26.67;;;;;9.10;100.00;100126.34;4985416;28;45725;-71
2023/04/22 01:34:22;;;;;;;;;30.33;29.00;;;;;9.12;100.00;100126.16;4984253;28;45727;-73
2023/04/22 01:36:49;;;;;;;;;29.33;26.67;;;;;9.08;100.00;100128.44;4986263;28;45624;-72
2023/04/22 01:39:15;;;;;;;;;27.67;26.00;;;;;9.11;100.00;100132.66;4973410;28;46929;-70
2023/04/22 01:41:41;;;;;;;;;30.00;28.67;;;;;9.12;100.00;100120.66;4988387;28;45552;-72
2023/04/22 01:44:06;;;;;;;;;31.33;28.00;;;;;9.13;100.00;100119.59;4977579;28;44813;-72
2023/04/22 01:46:33;;;;;;;;;33.33;25.67;;;;;9.16;100.00;100119.16;4980469;28;45399;-73
2023/04/22 01:48:58;;;;;;;;;32.00;26.67;;;;;9.17;100.00;100127.16;4980705;28;45493;-75
2023/04/22 01:51:24;;;;;;;;;28.00;25.67;;;;;9.18;100.00;100117.91;4984377;28;45601;-72
2023/04/22 01:53:50;;;;;;;;;29.00;26.33;;;;;9.07;100.00;100093.97;4982800;28;45716;-72
2023/04/22 01:56:16;;;;;;;;;31.33;28.00;;;;;9.16;100.00;100108.22;4979837;28;45319;-73
2023/04/22 01:58:42;;;;;;;;;25.00;24.00;;;;;9.25;100.00;100120.63;4955594;28;47633;-73
2023/04/22 02:01:11;;;;;;;;;24.67;24.67;;;;;9.29;100.00;100099.97;4973034;28;45212;-72
2023/04/22 02:03:37;;;;;;;;;31.33;29.33;;;;;9.26;100.00;100075.78;4977898;28;45415;-73
2023/04/22 02:06:04;;;;;;;;;28.67;26.00;;;;;9.26;100.00;100075.78;4984939;28;45900;-72
2023/04/22 02:08:29;;;;;;;;;34.00;28.00;;;;;9.26;100.00;100078.50;4987786;28;47430;-72
2023/04/22 02:10:55;;;;;;;;;31.33;28.33;;;;;9.22;100.00;100069.09;4964043;28;45659;-73
2023/04/22 02:13:21;;;;;;;;;27.00;26.67;;;;;9.10;100.00;100059.84;4981910;28;45497;-72
2023/04/22 02:15:46;;;;;;;;;33.00;26.67;;;;;9.21;100.00;100077.47;4980869;28;46093;-72
2023/04/22 02:18:12;;;;;;;;;31.00;24.00;;;;;9.19;100.00;100080.44;4981721;28;46282;-72
2023/04/22 02:20:37;;;;;;;;;26.67;24.67;;;;;8.99;100.00;100064.94;4978275;28;45350;-72
2023/04/22 02:23:03;;;;;;;;;26.33;24.00;;;;;9.13;100.00;100087.63;4991555;28;45914;-72
2023/04/22 02:25:29;;;;;;;;;24.67;22.00;;;;;9.10;100.00;100093.53;4978962;28;45764;-73
2023/04/22 02:27:54;;;;;;;;;27.00;25.67;;;;;8.99;100.00;100073.13;4994785;28;45583;-72
2023/04/22 02:30:20;;;;;;;;;27.00;25.33;;;;;9.05;100.00;100084.28;4988912;28;44763;-71
2023/04/22 02:32:46;;;;;;;;;22.33;19.00;;;;;9.04;100.00;100075.22;4978436;28;45497;-72
2023/04/22 02:35:11;;;;;;;;;28.00;25.67;;;;;9.02;100.00;100072.69;4984186;28;45396;-74
2023/04/22 02:37:37;;;;;;;;;26.00;24.67;;;;;9.04;100.00;100074.38;4962551;28;46364;-74
2023/04/22 02:40:04;;;;;;;;;29.67;25.67;;;;;9.05;100.00;100081.56;4981085;28;45418;-73
2023/04/22 02:42:29;;;;;;;;;26.67;26.00;;;;;9.07;100.00;100077.56;4994391;28;45452;-73
2023/04/22 02:44:54;;;;;;;;;25.33;24.00;;;;;8.98;100.00;100081.56;4999550;28;45393;-73
2023/04/22 02:47:21;;;;;;;;;25.00;22.00;;;;;9.02;100.00;100086.38;4972944;28;45462;-74
2023/04/22 02:49:46;;;;;;;;;30.67;27.33;;;;;9.16;100.00;100095.41;4993290;28;45443;-73
2023/04/22 02:52:12;;;;;;;;;27.33;25.67;;;;;9.22;100.00;100098.31;4978952;28;45519;-74
2023/04/22 02:54:37;;;;;;;;;27.00;22.00;;;;;9.25;100.00;100082.31;4979462;28;45363;-72
2023/04/22 02:57:04;;;;;;;;;30.00;22.67;;;;;9.31;100.00;100069.66;4985561;28;45703;-72
2023/04/22 02:59:30;;;;;;;;;24.67;24.67;;;;;9.30;100.00;100071.56;4960667;28;45660;-73
2023/04/22 03:01:56;;;;;;;;;31.33;27.67;;;;;9.33;100.00;100076.59;4969466;28;45106;-73
2023/04/22 03:04:21;;;;;;;;;29.33;23.33;;;;;9.23;100.00;100059.78;4980204;28;45474;-74
2023/04/22 03:06:48;;;;;;;;;30.00;25.00;;;;;9.32;100.00;100066.69;4985704;28;46220;-74
2023/04/22 03:09:14;;;;;;;;;28.33;24.67;;;;;9.36;100.00;100067.94;4982472;28;45503;-74
2023/04/22 03:11:39;;;;;;;;;30.67;26.00;;;;;9.42;100.00;100068.16;4991029;28;45753;-73
2023/04/22 03:14:06;;;;;;;;;32.33;24.00;;;;;9.43;100.00;100048.78;4985602;28;45405;-72
2023/04/22 03:16:32;;;;;;;;;27.00;24.33;;;;;9.46;100.00;100052.94;4978523;28;45683;-73
2023/04/22 03:18:57;;;;;;;;;27.67;23.00;;;;;9.48;100.00;100048.13;4978304;28;45830;-73
2023/04/22 03:21:23;;;;;;;;;27.00;24.67;;;;;9.48;100.00;100031.69;4976234;28;45767;-72
2023/04/22 03:23:48;;;;;;;;;26.67;24.67;;;;;9.47;100.00;100038.22;4981427;28;46164;-79
2023/04/22 03:26:14;;;;;;;;;31.33;23.67;;;;;9.52;100.00;100035.66;4991376;28;45480;-78
2023/04/22 03:28:39;;;;;;;;;24.00;22.00;;;;;9.51;100.00;100034.00;4987190;28;45966;-77
2023/04/22 03:31:05;;;;;;;;;25.00;22.00;;;;;9.47;100.00;100027.28;4988525;28;45676;-78
2023/04/22 03:33:31;;;;;;;;;30.67;26.67;;;;;9.54;100.00;100025.34;4970329;28;45449;-76
2023/04/22 03:35:56;;;;;;;;;28.33;24.67;;;;;9.42;100.00;100002.47;4994371;28;45078;-76
2023/04/22 03:38:22;;;;;;;;;25.00;23.00;;;;;9.52;100.00;100009.13;4985135;28;45476;-78
2023/04/22 03:40:47;;;;;;;;;36.00;28.00;;;;;9.51;100.00;100007.44;4986251;28;45232;-76
2023/04/22 03:43:13;;;;;;;;;28.00;24.00;;;;;9.47;100.00;99988.94;4986070;28;45369;-79
2023/04/22 03:45:39;;;;;;;;;28.33;24.67;;;;;9.54;100.00;100000.69;4966406;28;46982;-80
2023/04/22 03:48:17;;;;;;;;;34.67;29.00;;;;;9.55;100.00;100018.81;4991374;28;45414;-81
2023/04/22 03:51:37;;;;;;;;;32.67;26.33;;;;;9.59;100.00;100036.44;5005547;28;45002;-81
2023/04/22 03:54:08;;;;;;;;;38.33;27.00;;;;;9.71;100.00;100039.31;4967346;28;44790;-80
2023/04/22 03:57:01;;;;;;;;;27.33;25.67;;;;;9.76;100.00;100030.44;4996529;28;47338;-83
2023/04/22 03:59:27;;;;;;;;;31.67;29.67;;;;;9.84;100.00;100019.25;4994960;28;45275;-79
2023/04/22 04:01:53;;;;;;;;;30.33;28.00;;;;;9.85;100.00;100018.16;4997915;28;45436;-80
2023/04/22 04:04:19;;;;;;;;;35.67;30.00;;;;;9.85;100.00;100009.94;4984598;28;44850;-76
2023/04/22 04:06:44;;;;;;;;;33.67;30.00;;;;;9.73;100.00;99993.41;4985324;28;46117;-76
2023/04/22 04:09:10;;;;;;;;;32.00;30.00;;;;;9.86;100.00;99997.94;4982467;28;45433;-76
2023/04/22 04:11:36;;;;;;;;;32.00;28.67;;;;;9.81;100.00;99984.09;4997492;28;45444;-78
2023/04/22 04:14:02;;;;;;;;;30.33;27.67;;;;;9.82;100.00;99986.59;4986126;28;45805;-77
2023/04/22 04:16:28;;;;;;;;;35.67;29.33;;;;;9.75;100.00;99977.59;4990211;28;45632;-77
2023/04/22 04:18:53;;;;;;;;;36.67;30.67;;;;;9.63;100.00;99980.19;4985437;28;45378;-76
2023/04/22 04:21:19;;;;;;;;;36.00;31.67;;;;;9.81;100.00;99995.88;4982308;28;45361;-78
2023/04/22 04:23:45;;;;;;;;;39.00;31.33;;;;;9.87;100.00;99972.25;4989216;28;45380;-78
2023/04/22 04:26:10;;;;;;;;;40.00;31.00;;;;;9.89;100.00;99957.25;4993836;28;45510;-78
2023/04/22 04:28:36;;;;;;;;;43.67;32.67;;;;;9.84;100.00;99939.81;4984150;28;45716;-78
2023/04/22 04:31:01;;;;;;;;;30.67;27.00;;;;;9.78;100.00;99927.03;4998911;28;46044;-79
2023/04/22 04:33:28;;;;;;;;;36.67;33.67;;;;;9.68;100.00;99922.03;4981221;28;45717;-79
2023/04/22 04:35:54;;;;;;;;;49.25;37.25;;;;;9.56;100.00;99921.94;4966224;28;45582;-77
2023/04/22 04:38:20;;;;;;;;;48.25;33.75;;;;;9.45;100.00;99928.97;4990655;28;45701;-77
2023/04/22 04:40:45;;;;;;;;;32.33;31.00;;;;;9.38;100.00;99944.59;4991065;28;45686;-76
2023/04/22 04:43:11;;;;;;;;;43.00;34.33;;;;;9.36;100.00;99965.88;4990343;28;45539;-78
2023/04/22 04:45:37;;;;;;;;;36.67;27.67;;;;;9.33;100.00;99978.09;4988298;28;46225;-77
2023/04/22 04:48:05;;;;;;;;;34.00;31.00;;;;;9.33;100.00;99974.53;4975013;28;44793;-78
2023/04/22 04:50:31;;;;;;;;;33.00;29.00;;;;;9.45;100.00;99983.69;4992455;28;45741;-76
2023/04/22 04:52:56;;;;;;;;;36.33;31.33;;;;;9.56;100.00;99960.25;4974488;28;47027;-77
2023/04/22 04:55:22;;;;;;;;;38.67;31.00;;;;;9.51;100.00;99946.41;4961558;28;46797;-78
2023/04/22 04:57:48;;;;;;;;;40.75;33.00;;;;;9.14;100.00;99906.00;4994451;28;45880;-83
2023/04/22 05:00:14;;;;;;;;;41.75;34.50;;;;;8.87;100.00;99951.81;4973273;28;44708;-81
2023/04/22 05:02:49;;;;;;;;;48.25;38.25;;;;;-147.47;100.00;64613.53;5017408;28;44043;-82
2023/04/22 05:05:14;;;;;;;;;51.75;40.25;;;;;8.72;100.00;99987.63;5007719;28;38575;-80
2023/04/22 05:07:40;;;;;;;;;42.00;36.50;;;;;8.50;100.00;99964.34;5007698;28;30595;-80
2023/04/22 05:10:06;;;;;;;;;52.00;42.00;;;;;8.48;100.00;99984.53;5003695;28;28640;-84
2023/04/22 05:12:37;;;;;;;;;48.00;39.25;;;;;-147.47;100.00;64613.53;5017026;28;28725;-81
2023/04/22 05:15:08;;;;;;;;;51.75;41.25;;;;;-147.47;100.00;64613.53;5002647;28;29709;-82
2023/04/22 05:17:34;;;;;;;;;48.50;38.25;;;;;-147.47;100.00;64613.53;5004741;28;27992;-81
2023/04/22 05:20:00;;;;;;;;;49.25;37.75;;;;;-147.47;100.00;64613.53;5009117;28;28396;-81
2023/04/22 05:22:26;;;;;;;;;53.50;40.75;;;;;-147.47;100.00;64613.53;5020195;28;27792;-80
2023/04/22 05:24:51;;;;;;;;;50.25;40.25;;;;;-147.47;100.00;64613.53;5007003;28;28383;-81
2023/04/22 05:27:17;;;;;;;;;50.50;38.25;;;;;-147.47;100.00;64613.53;4990518;28;27830;-81
2023/04/22 05:29:43;;;;;;;;;56.00;41.50;;;;;-147.47;100.00;64613.53;5006529;28;28556;-79
2023/04/22 05:32:09;;;;;;;;;57.00;43.75;;;;;-147.47;100.00;64613.53;5009032;28;28802;-80
2023/04/22 05:34:34;;;;;;;;;48.75;39.50;;;;;-147.47;100.00;64613.53;4993040;28;30008;-83
2023/04/22 05:39:36;;;;;;;;;55.75;41.50;;;;;-147.47;100.00;64613.53;5041187;28;45366;-76
2023/04/22 05:42:02;;;;;;;;;53.75;42.75;;;;;-147.47;100.00;64613.53;5021024;28;45513;-74
2023/04/22 05:44:27;;;;;;;;;46.75;40.00;;;;;-147.47;100.00;64613.53;5020356;28;47121;-74
2023/04/22 05:46:53;;;;;;;;;48.25;40.75;;;;;-147.47;100.00;64613.53;5021778;28;45209;-74
2023/04/22 05:49:18;;;;;;;;;53.75;42.25;;;;;-147.47;100.00;64613.53;5026267;28;46504;-76
2023/04/22 05:51:45;;;;;;;;;55.00;41.25;;;;;-147.47;100.00;64613.53;5043298;28;45993;-75
2023/04/22 05:54:10;;;;;;;;;50.00;40.25;;;;;-147.47;100.00;64613.53;5037125;28;46604;-75
2023/04/22 05:56:35;;;;;;;;;47.75;37.50;;;;;-147.47;100.00;64613.53;5037714;28;44908;-78
2023/04/22 05:59:01;;;;;;;;;50.50;40.50;;;;;-147.47;100.00;64613.53;5037510;28;45632;-74
2023/04/22 06:01:26;;;;;;;;;57.00;44.25;;;;;-147.47;100.00;64613.53;5033807;28;46326;-74
2023/04/22 06:03:52;;;;;;;;;50.75;40.25;;;;;-147.47;100.00;64613.53;5021125;28;46760;-74
2023/04/22 06:06:17;;;;;;;;;47.00;36.75;;;;;-147.47;100.00;64613.53;5013706;28;46011;-73
2023/04/22 06:08:43;;;;;;;;;49.75;40.25;;;;;-147.47;100.00;64613.53;5038595;28;45678;-73
2023/04/22 06:11:09;;;;;;;;;52.25;40.25;;;;;-147.47;100.00;64613.53;5032038;28;45386;-72
2023/04/22 06:13:34;;;;;;;;;50.00;39.25;;;;;-147.47;100.00;64613.53;5038472;28;45553;-72
2023/04/22 06:16:00;;;;;;;;;51.50;39.00;;;;;-147.47;100.00;64613.53;5031178;28;45970;-71
2023/04/22 06:18:26;;;;;;;;;53.00;40.25;;;;;-147.47;100.00;64613.53;5032691;28;46047;-74
2023/04/22 06:20:52;;;;;;;;;51.50;40.25;;;;;-147.47;100.00;64613.53;5035008;28;45507;-74
2023/04/22 06:23:18;;;;;;;;;52.50;40.50;;;;;-147.47;100.00;64613.53;5015721;28;48071;-73
2023/04/22 06:25:44;;;;;;;;;47.00;37.50;;;;;-147.47;100.00;64613.53;5036207;28;45662;-72
2023/04/22 06:28:09;;;;;;;;;51.50;40.50;;;;;-147.47;100.00;64613.53;5016046;28;45395;-73
2023/04/22 06:30:35;;;;;;;;;53.75;42.25;;;;;-147.47;100.00;64613.53;5033445;28;45596;-76
2023/04/22 06:33:03;;;;;;;;;56.50;42.00;;;;;-147.47;100.00;64613.53;5029590;28;45647;-73
2023/04/22 06:35:29;;;;;;;;;53.25;41.25;;;;;-147.47;100.00;64613.53;5018402;28;45954;-74
2023/04/22 06:37:54;;;;;;;;;52.75;40.00;;;;;-147.47;100.00;64613.53;5033651;28;45375;-74
2023/04/22 06:40:20;;;;;;;;;45.75;37.50;;;;;-147.47;100.00;64613.53;5034065;28;45448;-73
2023/04/22 06:42:45;;;;;;;;;53.25;42.00;;;;;-147.47;100.00;64613.53;5030211;28;45458;-74
2023/04/22 06:45:11;;;;;;;;;43.00;36.75;;;;;-147.47;100.00;64613.53;5042090;28;45476;-76
2023/04/22 06:47:40;;;;;;;;;49.75;36.25;;;;;-147.47;100.00;64613.53;5032501;28;45749;-75
2023/04/22 06:50:09;;;;;;;;;51.50;39.50;;;;;-147.47;100.00;64613.53;5032558;28;45618;-75
2023/04/22 06:52:35;;;;;;;;;46.25;37.75;;;;;-147.47;100.00;64613.53;5034583;28;46736;-75
2023/04/22 06:55:02;;;;;;;;;43.75;35.75;;;;;-147.47;100.00;64613.53;5030353;28;45434;-78
2023/04/22 06:57:30;;;;;;;;;52.50;39.50;;;;;-147.47;100.00;64613.53;5036252;28;45247;-79
2023/04/22 06:59:56;;;;;;;;;54.25;42.75;;;;;-147.47;100.00;64613.53;5033346;28;46360;-78
2023/04/22 07:02:21;;;;;;;;;52.00;42.50;;;;;-147.47;100.00;64613.53;5033397;28;45976;-78
2023/04/22 07:04:47;;;;;;;;;55.00;44.50;;;;;-147.47;100.00;64613.53;5032420;28;45620;-77
2023/04/22 07:07:21;;;;;;;;;55.25;44.00;;;;;-147.47;100.00;64613.53;5029561;28;45429;-86
2023/04/22 07:09:47;;;;;;;;;52.00;41.50;;;;;-147.47;100.00;64613.53;5032372;28;46122;-77
2023/04/22 07:12:12;;;;;;;;;50.25;40.25;;;;;-147.47;100.00;64613.53;5031414;28;45492;-79
2023/04/22 07:14:43;;;;;;;;;17.00;2.75;;;;;-147.47;100.00;64613.53;5035057;28;46049;-77
2023/04/22 07:17:08;;;;;;;;;48.00;40.00;;;;;-147.47;100.00;64613.53;5038369;28;45375;-77
2023/04/22 07:19:52;;;;;;;;;50.75;39.75;;;;;-147.47;100.00;64613.53;5033206;28;45482;-78
2023/04/22 07:22:18;;;;;;;;;50.50;41.00;;;;;-147.47;100.00;64613.53;5013524;28;46234;-79
2023/04/22 07:24:43;;;;;;;;;48.00;38.25;;;;;-147.47;100.00;64613.53;5034173;28;45329;-79
2023/04/22 07:27:09;;;;;;;;;52.50;40.75;;;;;-147.47;100.00;64613.53;5038434;28;45618;-78
2023/04/22 07:29:34;;;;;;;;;49.50;37.25;;;;;-147.47;100.00;64613.53;5027211;28;46069;-78
2023/04/22 07:32:00;;;;;;;;;46.50;37.00;;;;;-147.47;100.00;64613.53;5034779;28;45322;-77
2023/04/22 07:34:25;;;;;;;;;51.75;41.75;;;;;-147.47;100.00;64613.53;5034650;28;45724;-78
2023/04/22 07:36:51;;;;;;;;;47.75;38.25;;;;;-147.47;100.00;64613.53;5035664;28;45420;-77
2023/04/22 07:39:17;;;;;;;;;42.25;36.25;;;;;-147.47;100.00;64613.53;5034568;28;45454;-78
2023/04/22 07:41:42;;;;;;;;;47.75;36.00;;;;;-147.47;100.00;64613.53;5023496;28;47336;-78
2023/04/22 07:44:09;;;;;;;;;54.25;42.00;;;;;-147.47;100.00;64613.53;5035736;28;45423;-78
2023/04/22 07:46:34;;;;;;;;;46.75;37.50;;;;;-147.47;100.00;64613.53;5037135;28;45981;-78
2023/04/22 07:49:00;;;;;;;;;48.25;39.00;;;;;-147.47;100.00;64613.53;5033674;28;45339;-78
2023/04/22 07:51:25;;;;;;;;;51.75;41.50;;;;;-147.47;100.00;64613.53;5036308;28;45457;-78
2023/04/22 07:53:51;;;;;;;;;50.25;41.50;;;;;-147.47;100.00;64613.53;5022933;28;45845;-74
2023/04/22 07:56:16;;;;;;;;;52.25;37.25;;;;;-147.47;100.00;64613.53;5030910;28;45865;-76
2023/04/22 07:58:42;;;;;;;;;50.00;41.25;;;;;-147.47;100.00;64613.53;5034958;28;45425;-76
2023/04/22 08:01:07;;;;;;;;;49.25;38.50;;;;;-147.47;100.00;64613.53;5031555;28;45479;-76
2023/04/22 08:03:33;;;;;;;;;51.25;39.00;;;;;-147.47;100.00;64613.53;5027618;28;45472;-76
2023/04/22 08:05:58;;;;;;;;;79.00;66.75;;;;;-147.47;100.00;64613.53;5032500;28;45902;-75
2023/04/22 08:08:25;;;;;;;;;58.50;44.75;;;;;-147.47;100.00;64613.53;5032549;28;45319;-75
2023/04/22 08:10:50;;;;;;;;;51.75;39.50;;;;;-147.47;100.00;64613.53;5037706;28;45677;-75
2023/04/22 08:13:16;;;;;;;;;45.00;37.75;;;;;-147.47;100.00;64613.53;5019404;28;45315;-77
2023/04/22 08:15:41;;;;;;;;;46.50;39.25;;;;;-147.47;100.00;64613.53;5032909;28;45332;-77
2023/04/22 08:18:07;;;;;;;;;47.00;38.75;;;;;-147.47;100.00;64613.53;5035060;28;45680;-77
2023/04/22 08:20:32;;;;;;;;;44.75;38.50;;;;;-147.47;100.00;64613.53;5037608;28;45315;-75
2023/04/22 08:22:59;;;;;;;;;44.50;35.75;;;;;-147.47;100.00;64613.53;5024257;28;45838;-76
2023/04/22 08:25:25;;;;;;;;;46.75;38.00;;;;;-147.47;100.00;64613.53;5042826;28;45748;-76
2023/04/22 08:27:51;;;;;;;;;40.33;32.33;;;;;-147.47;100.00;64613.53;5038155;28;45705;-76
2023/04/22 08:30:16;;;;;;;;;35.33;29.33;;;;;-147.47;100.00;64613.53;5037305;28;46305;-75
2023/04/22 08:32:42;;;;;;;;;34.00;31.67;;;;;-147.47;100.00;64613.53;5023593;28;45570;-76
2023/04/22 08:35:08;;;;;;;;;35.00;30.33;;;;;-147.47;100.00;64613.53;5037000;28;45531;-75
2023/04/22 08:37:34;;;;;;;;;35.33;30.67;;;;;-147.47;100.00;64613.53;5040416;28;45919;-75
2023/04/22 08:40:00;;;;;;;;;34.67;32.00;;;;;-147.47;100.00;64613.53;5037273;28;45710;-74
2023/04/22 08:42:26;;;;;;;;;34.67;30.00;;;;;-147.47;100.00;64613.53;5035532;28;45357;-77
2023/04/22 08:44:53;;;;;;;;;31.00;28.00;;;;;-147.47;100.00;64613.53;5027525;28;45784;-76
2023/04/22 08:47:20;;;;;;;;;30.33;28.00;;;;;-147.47;100.00;64613.53;5037678;28;45490;-76
2023/04/22 08:49:46;;;;;;;;;35.00;30.33;;;;;-147.47;100.00;64613.53;5024541;28;46746;-76
2023/04/22 08:52:14;;;;;;;;;33.00;28.33;;;;;-147.47;100.00;64613.53;5029882;28;46626;-73
2023/04/22 08:54:42;;;;;;;;;27.33;24.67;;;;;-147.47;100.00;64613.53;5012789;28;45782;-72
2023/04/22 08:57:09;;;;;;;;;32.00;30.00;;;;;-147.47;100.00;64613.53;5029090;28;45632;-71
2023/04/22 08:59:36;;;;;;;;;36.00;30.33;;;;;-147.47;100.00;64613.53;5019415;28;46533;-70
2023/04/22 09:02:04;;;;;;;;;45.67;37.00;;;;;-147.47;100.00;64613.53;5012045;28;45850;-70
2023/04/22 09:04:29;;;;;;;;;47.33;37.33;;;;;-147.47;100.00;64613.53;5030016;28;45597;-69
2023/04/22 09:06:58;;;;;;;;;47.33;36.33;;;;;-147.47;100.00;64613.53;5021998;28;45431;-68
2023/04/22 09:09:24;;;;;;;;;46.67;40.00;;;;;-147.47;100.00;64613.53;5014467;28;47102;-69
2023/04/22 09:11:49;;;;;;;;;54.75;44.50;;;;;-147.47;100.00;64613.53;5025890;28;45735;-69
2023/04/22 09:14:18;;;;;;;;;58.25;45.25;;;;;-147.47;100.00;64613.53;5025071;28;45467;-70
2023/04/22 09:16:47;;;;;;;;;56.25;42.25;;;;;-147.47;100.00;64613.53;5010733;28;46963;-67
2023/04/22 09:19:14;;;;;;;;;61.50;46.50;;;;;-147.47;100.00;64613.53;5026648;28;48011;-70
2023/04/22 09:21:40;;;;;;;;;56.25;46.25;;;;;-147.47;100.00;64613.53;5027460;28;45845;-68
2023/04/22 09:24:08;;;;;;;;;61.50;48.50;;;;;-147.47;100.00;64613.53;5029645;28;45950;-67
2023/04/22 09:26:39;;;;;;;;;55.50;44.25;;;;;-147.47;100.00;64613.53;5021641;28;45687;-68
2023/04/22 09:29:08;;;;;;;;;66.25;52.25;;;;;-147.47;100.00;64613.53;5030732;28;46589;-68
2023/04/22 09:31:34;;;;;;;;;61.75;49.25;;;;;-147.47;100.00;64613.53;5036706;28;45428;-69
2023/04/22 09:34:00;;;;;;;;;62.75;49.25;;;;;-147.47;100.00;64613.53;5011429;28;45458;-68
2023/04/22 09:36:39;;;;;;;;;59.25;45.50;;;;;-147.47;100.00;64613.53;5031505;28;45310;-66
2023/04/22 09:39:07;;;;;;;;;52.33;43.00;;;;;-147.47;100.00;64613.53;5032262;28;45857;-70
2023/04/22 09:41:39;;;;;;;;;57.67;47.67;;;;;-147.47;100.00;64613.53;5032591;28;45509;-68
2023/04/22 09:44:11;;;;;;;;;58.25;48.00;;;;;-147.47;100.00;64613.53;5040423;28;45415;-68
2023/04/22 09:46:37;;;;;;;;;53.00;43.33;;;;;-147.47;100.00;64613.53;5032105;28;45406;-68
2023/04/22 09:49:02;;;;;;;;;54.33;41.67;;;;;-147.47;100.00;64613.53;5032674;28;45873;-69
2023/04/22 09:51:30;;;;;;;;;52.67;41.33;;;;;-147.47;100.00;64613.53;5023783;28;45768;-68
2023/04/22 09:54:07;;;;;;;;;59.33;42.33;;;;;-147.47;100.00;64613.53;5028852;28;45538;-69
2023/04/22 09:56:58;;;;;;;;;50.33;40.33;;;;;-147.47;100.00;64613.53;5029052;28;45524;-69
2023/04/22 09:59:26;;;;;;;;;54.25;42.75;;;;;-147.47;100.00;64613.53;5018404;28;45786;-69
2023/04/22 10:01:54;;;;;;;;;53.00;44.00;;;;;-147.47;100.00;64613.53;5009324;28;45535;-70
2023/04/22 10:04:21;;;;;;;;;61.00;47.67;;;;;-147.47;100.00;64613.53;5017195;28;45821;-69
2023/04/22 10:06:48;;;;;;;;;50.00;40.33;;;;;-147.47;100.00;64613.53;5025448;28;45735;-71
2023/04/22 10:09:16;;;;;;;;;49.67;42.33;;;;;-147.47;100.00;64613.53;5035672;28;45853;-69
2023/04/22 10:11:42;;;;;;;;;48.33;36.33;;;;;-147.47;100.00;64613.53;5027069;28;46064;-69
2023/04/22 10:14:09;;;;;;;;;46.33;37.00;;;;;-147.47;100.00;64613.53;5008311;28;45769;-67
2023/04/22 10:16:37;;;;;;;;;46.00;37.00;;;;;-147.47;100.00;64613.53;5068195;22;46073;-80
2023/04/22 10:19:06;;;;;;;;;50.67;40.67;;;;;-147.47;100.00;64613.53;5066044;27;47751;-78
2023/04/22 10:21:33;;;;;;;;;47.67;38.00;;;;;-147.47;100.00;64613.53;5083776;27;45783;-78
2023/04/22 10:24:02;;;;;;;;;48.00;38.33;;;;;-147.47;100.00;64613.53;5080464;27;45523;-78
2023/04/22 10:26:48;;;;;;;;;42.67;39.00;;;;;-147.47;100.00;64613.53;5069737;27;45668;-77
2023/04/22 10:29:16;;;;;;;;;47.33;39.67;;;;;-147.47;100.00;64613.53;5061225;27;48397;-77
2023/04/22 10:31:54;;;;;;;;;51.33;40.67;;;;;-147.47;100.00;64613.53;5083862;27;45655;-75
2023/04/22 10:34:19;;;;;;;;;41.67;36.33;;;;;-147.47;100.00;64613.53;5086712;27;45884;-77
2023/04/22 10:37:00;;;;;;;;;40.00;36.00;;;;;-147.47;100.00;64613.53;5092795;27;45730;-77
2023/04/22 10:39:28;;;;;;;;;31.33;30.33;;;;;-147.47;100.00;64613.53;5081763;27;45570;-77
2023/04/22 10:42:04;;;;;;;;;38.00;32.00;;;;;-147.47;100.00;64613.53;5086187;27;46778;-76
2023/04/22 10:44:48;;;;;;;;;41.00;34.67;;;;;-147.47;100.00;64613.53;5078296;27;45502;-77
2023/04/22 10:47:27;;;;;;;;;32.33;30.33;;;;;-147.47;100.00;64613.53;5078789;27;45564;-76
2023/04/22 10:50:16;;;;;;;;;30.00;28.00;;;;;-147.47;100.00;64613.53;5081358;27;45562;-76
2023/04/22 10:52:44;;;;;;;;;24.67;22.33;;;;;-147.47;100.00;64613.53;5084916;27;45471;-77
2023/04/22 10:55:10;;;;;;;;;31.33;28.00;;;;;-147.47;100.00;64613.53;5066825;27;45760;-80
2023/04/22 10:57:41;;;;;;;;;38.33;30.00;;;;;-147.47;100.00;64613.53;5087844;27;45676;-80
2023/04/22 11:00:21;;;;;;;;;34.00;26.67;;;;;-147.47;100.00;64613.53;5089760;27;44729;-79
2023/04/22 11:02:51;;;;;;;;;35.33;28.67;;;;;-147.47;100.00;64613.53;5079898;27;45470;-78
2023/04/22 11:05:26;;;;;;;;;24.67;22.67;;;;;-147.47;100.00;64613.53;5066552;27;45787;-77